NC4J Weather Reports


time (UTC)temp
F
wind
direction
speed
knots
gust
knots
rain 1hr
in
rain 24hr
in
rain mn
in
humidity
%
barometer
mb
20260906044805 68 347 0.0 0.0 0.00 0.00 0.00 98 1016.5
20260906044259 68 347 0.0 0.0 0.00 0.00 0.00 98 1016.4
20260906043755 68 347 0.0 0.0 0.00 0.00 0.00 98 1016.7
20260906043251 68 347 0.0 0.0 0.00 0.00 0.00 98 1016.6
20260906042750 68 346 0.0 0.0 0.00 0.00 0.00 98 1016.6
20260906042250 68 346 0.9 0.9 0.00 0.00 0.00 98 1016.4
20260906041745 69 347 0.0 0.0 0.00 0.00 0.00 98 1016.3
20260906041241 69 347 0.0 0.0 0.00 0.00 0.00 98 1016.3
20260906040736 69 347 0.9 0.9 0.00 0.00 0.00 98 1016.4
20260906040231 69 347 0.0 0.0 0.00 0.00 0.00 98 1016.3
20260906035726 69 347 0.0 0.0 0.00 0.00 0.00 98 1016.5
20260906035222 69 347 0.0 0.0 0.00 0.00 0.00 98 1016.5
20260906034722 69 347 0.0 0.0 0.00 0.00 0.00 98 1016.3
20260906034217 69 347 0.0 0.0 0.00 0.00 0.00 98 1016.6
20260906033713 69 347 0.0 0.0 0.00 0.00 0.00 98 1016.7
20260906033212 69 347 0.0 0.0 0.00 0.00 0.00 98 1016.6
20260906032709 69 347 0.0 0.0 0.00 0.00 0.00 98 1016.7
20260906032209 69 347 0.9 0.9 0.00 0.00 0.00 98 1017.0
20260906031704 69 347 0.0 0.0 0.00 0.00 0.00 98 1017.1
20260906031159 69 347 0.9 0.9 0.00 0.00 0.00 97 1016.8
20260906030659 69 347 0.0 0.0 0.00 0.00 0.00 97 1016.9
20260906030154 69 347 0.0 0.0 0.00 0.00 0.00 97 1017.0
20260906025654 69 347 0.0 0.0 0.00 0.00 0.00 97 1017.1
20260906025153 69 347 0.0 0.0 0.00 0.00 0.00 97 1016.8
20260906024648 70 347 0.0 0.0 0.00 0.00 0.00 97 1016.9
20260906024147 70 347 0.0 0.0 0.00 0.00 0.00 97 1016.8
20260906023643 70 347 0.0 0.0 0.00 0.00 0.00 97 1016.9
20260906023143 70 347 0.0 0.0 0.00 0.00 0.00 97 1016.8
20260906022638 70 347 0.0 0.0 0.00 0.00 0.00 97 1016.9
20260906022134 70 346 0.0 0.0 0.00 0.00 0.00 97 1016.7
20260906021630 70 347 0.9 0.9 0.00 0.00 0.00 97 1016.5
20260906021129 70 347 0.0 0.0 0.00 0.00 0.00 97 1016.3
20260906020629 70 347 0.0 0.0 0.00 0.00 0.00 97 1015.8
20260906020124 70 347 0.9 0.9 0.00 0.00 0.00 96 1016.3
20260906015618 70 347 0.0 0.0 0.00 0.00 0.00 96 1016.2
20260906015117 70 347 0.0 0.0 0.00 0.00 0.00 96 1016.1
20260906014611 70 347 0.0 0.0 0.00 0.00 0.00 96 1016.2
20260906014108 70 347 0.0 0.0 0.00 0.00 0.00 96 1016.1
20260906013603 71 347 0.0 0.0 0.00 0.00 0.00 95 1016.4
20260906013058 71 347 0.0 0.0 0.00 0.00 0.00 95 1016.0
20260906012553 71 347 0.0 0.0 0.00 0.00 0.00 95 1016.0
20260906012053 71 347 0.9 0.9 0.00 0.00 0.00 95 1015.8
20260906011549 71 347 0.0 0.0 0.00 0.00 0.00 95 1016.1
20260906011048 71 347 0.0 0.0 0.00 0.00 0.00 94 1016.1
20260906010544 71 347 0.0 0.0 0.00 0.00 0.00 94 1016.0
20260906010040 71 347 0.0 0.0 0.00 0.00 0.00 94 1016.0
20260906005539 71 347 0.0 0.0 0.00 0.00 0.00 93 1015.8
20260906005039 71 347 0.0 0.0 0.00 0.00 0.00 93 1015.8
20260906004538 72 347 0.0 0.0 0.00 0.00 0.00 93 1015.8
20260906004033 72 347 0.0 0.0 0.00 0.00 0.00 93 1015.6
20260906003528 72 347 0.9 0.9 0.00 0.00 0.00 92 1015.7
20260906003024 72 347 0.0 0.0 0.00 0.00 0.00 93 1015.6
20260906002519 72 347 0.0 0.0 0.00 0.00 0.00 92 1015.5
20260906002014 73 347 0.0 0.0 0.00 0.00 0.00 91 1015.5
20260906001510 73 347 0.0 0.0 0.00 0.00 0.00 92 1015.4
20260906001004 73 347 0.0 0.0 0.00 0.00 0.00 91 1015.4
20260906000500 73 347 0.0 0.0 0.00 0.00 0.00 91 1015.3
20260905235954 74 347 0.9 0.9 0.00 0.00 0.00 90 1015.3
20260905235454 74 347 0.0 0.0 0.00 0.00 0.00 90 1015.1
20260905234949 74 347 0.0 0.0 0.00 0.00 0.00 90 1015.2
20260905234445 74 347 0.0 0.0 0.00 0.00 0.00 89 1015.3
20260905233944 75 347 0.9 0.9 0.00 0.00 0.00 89 1015.1
20260905233440 75 347 0.9 0.9 0.00 0.00 0.00 88 1015.2
20260905232939 76 347 0.0 0.0 0.00 0.00 0.00 87 1015.1
20260905232435 76 347 0.9 0.9 0.00 0.00 0.00 86 1015.0
20260905231930 77 347 0.9 0.9 0.00 0.00 0.00 84 1014.9
20260905231426 77 347 0.0 0.0 0.00 0.00 0.00 85 1014.9
20260905230922 78 347 0.9 0.9 0.00 0.00 0.00 84 1015.0
20260905230421 78 347 0.0 0.0 0.00 0.00 0.00 82 1015.0
20260905225919 78 347 0.0 0.0 0.00 0.00 0.00 81 1014.9
20260905225414 79 347 0.9 0.9 0.00 0.00 0.00 79 1014.9
20260905224909 79 347 0.9 0.9 0.00 0.00 0.00 77 1014.9
20260905224405 78 349 1.7 1.7 0.00 0.00 0.00 75 1015.0
20260905223859 78 330 0.9 0.9 0.00 0.00 0.00 81 1014.9
20260905223358 78 330 0.9 0.9 0.00 0.00 0.00 81 1015.0
20260905222857 79 330 0.9 0.9 0.00 0.00 0.00 81 1015.0
20260905222356 80 330 0.9 0.9 0.00 0.00 0.00 79 1015.0
20260905221852 80 331 0.0 0.0 0.00 0.00 0.00 72 1015.0
20260905221349 80 329 0.9 0.9 0.00 0.00 0.00 76 1014.9
20260905220844 80 329 0.9 0.9 0.00 0.00 0.00 70 1015.1
20260905220341 79 330 0.9 0.9 0.00 0.00 0.00 74 1015.2
20260905215840 79 333 0.0 0.0 0.00 0.00 0.00 76 1015.1
20260905215336 78 332 0.9 0.9 0.00 0.00 0.00 73 1015.3
20260905214832 78 343 0.9 0.0 0.00 0.00 0.00 80 1015.2
20260905214327 79 344 0.9 0.9 0.00 0.00 0.00 77 1015.3
20260905213827 79 343 0.0 0.0 0.00 0.00 0.00 76 1015.5
20260905213324 78 343 0.0 0.0 0.00 0.00 0.00 74 1015.5
20260905212819 78 344 1.7 0.9 0.00 0.00 0.00 76 1015.7
20260905212319 78 338 0.0 0.0 0.00 0.00 0.00 74 1015.8
20260905211818 78 338 0.0 0.0 0.00 0.00 0.00 76 1016.2
20260905211313 78 338 0.9 0.9 0.00 0.00 0.00 78 1016.0
20260905210810 77 338 0.9 0.9 0.00 0.00 0.00 75 1016.2
20260905210309 77 338 0.0 0.0 0.00 0.00 0.00 76 1016.1
20260905205808 77 338 0.9 0.9 0.00 0.00 0.00 77 1016.1
20260905205306 77 338 0.9 0.0 0.00 0.00 0.00 76 1015.8
20260905204802 77 344 0.9 0.9 0.00 0.00 0.00 77 1016.2
20260905204259 77 345 0.0 0.9 0.00 0.00 0.00 73 1015.8
20260905203758 77 344 0.0 0.0 0.00 0.00 0.00 73 1016.2
20260905203254 77 345 0.0 0.0 0.00 0.00 0.00 73 1016.1
20260905202749 77 345 0.9 0.9 0.00 0.00 0.00 75 1016.2
20260905202244 77 345 0.0 0.0 0.00 0.00 0.00 75 1016.1
20260905201739 77 345 0.0 0.0 0.00 0.00 0.00 74 1016.2
20260905201234 77 345 0.9 0.0 0.00 0.00 0.00 74 1016.4
20260905200729 77 345 0.0 0.0 0.00 0.00 0.00 72 1016.6
20260905200225 77 345 0.9 0.9 0.00 0.00 0.00 71 1016.6
20260905195723 77 330 0.0 0.0 0.00 0.00 0.00 78 1016.5
20260905195218 77 330 0.0 0.0 0.00 0.00 0.00 75 1016.6
20260905194714 77 329 0.0 0.0 0.00 0.00 0.00 74 1016.9
20260905194214 76 328 1.7 1.7 0.00 0.00 0.00 75 1016.6
20260905193708 76 331 0.9 0.9 0.00 0.00 0.00 78 1016.7
20260905193202 75 338 1.7 1.7 0.00 0.00 0.00 80 1016.7
20260905192658 75 339 0.0 0.0 0.00 0.00 0.00 80 1016.9
20260905192154 75 339 0.0 0.0 0.00 0.00 0.00 85 1016.8
20260905191654 74 339 0.0 0.0 0.00 0.00 0.00 83 1016.7
20260905191152 74 339 0.0 0.0 0.00 0.00 0.00 83 1016.6
20260905190651 74 339 0.0 0.0 0.00 0.00 0.00 84 1016.9
20260905190150 74 339 0.0 0.0 0.00 0.00 0.00 86 1017.1
20260905185649 73 339 0.0 0.0 0.00 0.00 0.00 85 1017.3
20260905185144 73 339 0.0 0.0 0.00 0.00 0.00 87 1017.4
20260905184643 73 339 0.9 0.9 0.00 0.00 0.00 87 1017.3
20260905184142 73 87 0.9 0.9 0.00 0.00 0.00 86 1017.2
20260905183642 73 88 0.0 0.0 0.00 0.00 0.00 85 1017.4
20260905183137 73 88 0.0 0.0 0.00 0.00 0.00 82 1017.7
20260905182637 75 89 0.9 0.9 0.00 0.00 0.00 80 1017.7
20260905182137 77 49 1.7 1.7 0.00 0.00 0.00 73 1017.9
20260905181631 78 102 1.7 1.7 0.00 0.00 0.00 66 1017.9
20260905181130 80 82 3.5 7.0 0.00 0.00 0.00 65 1017.9
20260905180626 80 33 5.2 7.0 0.00 0.00 0.00 67 1017.7
20260905180121 81 292 0.0 0.0 0.00 0.00 0.00 76 1017.1
20260905175620 81 292 0.9 0.9 0.00 0.00 0.00 74 1016.9
20260905175116 81 334 0.0 0.0 0.00 0.00 0.00 71 1017.0
20260905174611 82 325 5.2 5.2 0.00 0.00 0.00 67 1016.7
20260905174106 83 305 2.6 2.6 0.00 0.00 0.00 65 1016.7
20260905173603 84 309 2.6 2.6 0.00 0.00 0.00 61 1016.7
20260905173058 84 357 0.9 0.9 0.00 0.00 0.00 61 1017.1
20260905172556 85 14 0.9 0.9 0.00 0.00 0.00 60 1017.3
20260905172052 85 357 0.9 0.0 0.00 0.00 0.00 61 1017.3
20260905171548 86 338 0.0 0.0 0.00 0.00 0.00 57 1017.2
20260905171044 86 325 1.7 0.9 0.00 0.00 0.00 58 1017.1
20260905170541 87 10 0.9 0.9 0.00 0.00 0.00 56 1017.0
20260905170035 88 328 1.7 1.7 0.00 0.00 0.00 56 1017.0
20260905165531 87 4 0.0 0.0 0.00 0.00 0.00 59 1017.1
20260905165026 87 310 3.5 3.5 0.00 0.00 0.00 59 1017.0
20260905164526 87 29 1.7 1.7 0.00 0.00 0.00 58 1017.0
20260905164020 86 345 0.9 0.9 0.00 0.00 0.00 60 1017.3
20260905163517 86 318 1.7 1.7 0.00 0.00 0.00 59 1017.6
20260905163012 86 318 0.9 0.9 0.00 0.00 0.00 61 1017.7
20260905162508 86 7 0.9 0.9 0.00 0.00 0.00 62 1017.4
20260905162003 85 318 0.9 0.9 0.00 0.00 0.00 63 1017.8
20260905161502 85 295 3.5 5.2 0.00 0.00 0.00 63 1017.9
20260905161000 85 305 2.6 1.7 0.00 0.00 0.00 62 1017.8
20260905160500 85 341 2.6 2.6 0.00 0.00 0.00 65 1017.8
20260905155959 84 335 0.0 0.0 0.00 0.00 0.00 66 1017.9
20260905155454 84 19 0.9 0.9 0.00 0.00 0.00 66 1017.8
20260905154953 84 1 0.9 0.9 0.00 0.00 0.00 67 1018.0
20260905154448 84 344 0.9 0.9 0.00 0.00 0.00 66 1017.9
20260905153944 84 314 1.7 1.7 0.00 0.00 0.00 66 1017.9
20260905153440 83 30 0.9 0.9 0.00 0.00 0.00 66 1017.8
20260905152939 83 301 0.9 0.9 0.00 0.00 0.00 68 1017.6
20260905152439 82 328 0.0 0.0 0.00 0.00 0.00 72 1017.7
20260905151939 82 315 0.9 0.9 0.00 0.00 0.00 72 1017.7
20260905151435 82 330 3.5 3.5 0.00 0.00 0.00 70 1017.8
20260905150930 82 331 0.0 0.0 0.00 0.00 0.00 70 1017.7
20260905150431 82 328 1.7 1.7 0.00 0.00 0.00 71 1017.9
20260905145927 81 333 0.9 0.9 0.00 0.00 0.00 71 1018.1
20260905145427 81 42 0.9 0.9 0.00 0.00 0.00 71 1017.7
20260905144926 80 346 0.9 0.9 0.00 0.00 0.00 74 1017.7
20260905144422 80 20 0.9 0.9 0.00 0.00 0.00 75 1017.8
20260905143921 79 320 0.0 0.0 0.00 0.00 0.00 78 1018.0
20260905143415 79 319 0.0 0.0 0.00 0.00 0.00 78 1018.1
20260905142914 79 319 0.0 0.0 0.00 0.00 0.00 79 1017.9
20260905142413 78 319 0.9 0.9 0.00 0.00 0.00 80 1017.9
20260905141909 78 318 1.7 2.6 0.00 0.00 0.00 79 1017.8
20260905141404 78 335 1.7 1.7 0.00 0.00 0.00 81 1018.0
20260905140900 78 337 0.9 0.9 0.00 0.00 0.00 80 1018.1
20260905140355 77 324 1.7 1.7 0.00 0.00 0.00 82 1018.2
20260905135854 76 47 0.9 0.9 0.00 0.00 0.00 84 1018.1
20260905135350 76 69 0.0 0.0 0.00 0.00 0.00 89 1018.1
20260905134845 75 69 0.0 0.0 0.00 0.00 0.00 88 1017.9
20260905134344 75 69 0.0 0.0 0.00 0.00 0.00 89 1018.3
20260905133838 74 69 0.0 0.0 0.00 0.00 0.00 93 1018.4
20260905133334 74 69 0.0 0.0 0.00 0.00 0.00 93 1018.2
20260905132833 73 69 0.0 0.0 0.00 0.00 0.00 94 1018.3
20260905132329 73 69 0.0 0.0 0.00 0.00 0.00 95 1018.4
20260905131828 72 69 0.0 0.0 0.00 0.00 0.00 97 1018.3
20260905131324 72 69 0.0 0.0 0.00 0.00 0.00 98 1018.6
20260905130819 71 69 0.0 0.0 0.00 0.00 0.00 99 1018.6
20260905130318 71 69 0.0 0.0 0.00 0.00 0.00 99 1018.5
20260905125814 70 69 0.0 0.0 0.00 0.00 0.00 99 1018.6
20260905125308 70 69 0.0 0.0 0.00 0.00 0.00 99 1018.5
20260905124804 69 69 0.0 0.0 0.00 0.00 0.00 99 1018.4
20260905124300 69 69 0.0 0.0 0.00 0.00 0.00 99 1018.4
20260905123755 68 70 0.0 0.0 0.00 0.00 0.00 99 1018.5
20260905123253 68 70 0.0 0.0 0.00 0.00 0.00 99 1018.3
20260905122752 68 70 0.0 0.0 0.00 0.00 0.00 99 1018.4
20260905122251 68 70 0.0 0.0 0.00 0.00 0.00 99 1018.3
20260905121747 68 70 0.0 0.0 0.00 0.00 0.00 99 1018.4
20260905121244 68 71 0.0 0.0 0.00 0.00 0.00 99 1018.1
20260905120742 67 71 0.0 0.0 0.00 0.00 0.00 99 1018.2
20260905120236 67 71 0.0 0.0 0.00 0.00 0.00 99 1018.3
20260905115732 67 73 0.0 0.0 0.00 0.00 0.00 99 1018.3
20260905115231 67 73 0.0 0.0 0.00 0.00 0.00 99 1018.0
20260905114726 67 73 0.0 0.0 0.00 0.00 0.00 99 1018.2
20260905114224 67 73 0.0 0.0 0.00 0.00 0.00 99 1018.2
20260905113724 66 73 0.0 0.0 0.00 0.00 0.00 99 1018.2
20260905113220 66 73 0.0 0.0 0.00 0.00 0.00 99 1018.0
20260905112720 66 73 0.0 0.0 0.00 0.00 0.00 99 1017.8
20260905112215 66 73 0.0 0.0 0.00 0.00 0.00 99 1017.8
20260905111715 66 73 0.0 0.0 0.00 0.00 0.00 99 1017.7
20260905111215 66 73 0.0 0.0 0.00 0.00 0.00 99 1017.4
20260905110714 66 73 0.0 0.0 0.00 0.00 0.00 99 1017.7
20260905110209 66 73 0.0 0.0 0.00 0.00 0.00 99 1017.6
20260905105705 66 73 0.0 0.0 0.00 0.00 0.00 99 1017.7
20260905105203 66 73 0.0 0.0 0.00 0.00 0.00 99 1017.4
20260905104658 67 73 0.0 0.0 0.00 0.00 0.00 99 1017.3
20260905104154 67 73 0.0 0.0 0.00 0.00 0.00 99 1017.4
20260905103649 66 73 0.0 0.0 0.00 0.00 0.00 99 1017.3
20260905103144 66 73 0.0 0.0 0.00 0.00 0.00 99 1017.0
20260905102640 67 73 0.9 0.9 0.00 0.00 0.00 99 1017.1
20260905102137 67 73 0.0 0.0 0.00 0.00 0.00 99 1017.0
20260905101635 67 73 0.0 0.0 0.00 0.00 0.00 99 1016.9
20260905101133 67 73 0.9 0.0 0.00 0.00 0.00 99 1017.0
20260905100630 67 73 0.0 0.0 0.00 0.00 0.00 99 1017.1
20260905100126 67 73 0.0 0.0 0.00 0.00 0.00 99 1016.8
20260905095624 67 73 0.0 0.0 0.00 0.00 0.00 99 1017.0
20260905095120 67 73 0.0 0.0 0.00 0.00 0.00 99 1017.2
20260905094615 67 73 0.0 0.0 0.00 0.00 0.00 99 1016.8
20260905094115 67 73 0.0 0.0 0.00 0.00 0.00 99 1017.0
20260905093614 67 73 0.0 0.0 0.00 0.00 0.00 99 1017.1
20260905093111 67 73 0.9 0.9 0.00 0.00 0.00 99 1017.0
20260905092610 67 72 0.0 0.0 0.00 0.00 0.00 99 1017.1
20260905092107 67 72 0.0 0.0 0.00 0.00 0.00 99 1017.3
20260905091605 67 71 0.0 0.0 0.00 0.00 0.00 99 1017.2
20260905091101 68 71 0.0 0.0 0.00 0.00 0.00 99 1017.3
20260905090600 68 70 0.0 0.0 0.00 0.00 0.00 99 1017.0
20260905090056 68 70 0.0 0.0 0.00 0.00 0.00 99 1017.2
20260905085554 68 70 0.0 0.0 0.00 0.00 0.00 99 1017.4
20260905085050 68 70 0.0 0.0 0.00 0.00 0.00 99 1017.2
20260905084549 68 70 0.0 0.0 0.00 0.00 0.00 99 1017.4
20260905084044 68 70 0.0 0.0 0.00 0.00 0.00 99 1017.8
20260905083539 68 70 0.0 0.0 0.00 0.00 0.00 99 1017.6
20260905083036 68 70 0.0 0.0 0.00 0.00 0.00 99 1017.6
20260905082531 68 70 0.0 0.0 0.00 0.00 0.00 99 1017.7
20260905082027 68 70 0.0 0.0 0.00 0.00 0.00 99 1017.7
20260905081526 68 69 0.0 0.0 0.00 0.00 0.00 99 1017.7
20260905081027 68 69 0.0 0.0 0.00 0.00 0.00 99 1017.7
20260905080526 68 69 0.0 0.0 0.00 0.00 0.00 99 1017.8
20260905080022 68 69 0.0 0.0 0.00 0.00 0.00 99 1017.9
20260905075521 68 69 0.0 0.0 0.00 0.00 0.00 99 1018.0
20260905075021 68 69 0.0 0.0 0.00 0.00 0.00 99 1017.9
20260905074515 68 69 0.9 0.9 0.00 0.00 0.00 99 1018.0
20260905074011 68 69 0.0 0.0 0.00 0.00 0.00 99 1017.8
20260905073506 68 69 0.0 0.0 0.00 0.00 0.00 99 1017.9
20260905073002 68 69 0.0 0.0 0.00 0.00 0.00 99 1017.9
20260905072501 68 69 0.0 0.0 0.00 0.00 0.00 99 1018.2
20260905071957 69 69 0.0 0.0 0.00 0.00 0.00 99 1018.0
20260905071454 69 69 0.0 0.0 0.00 0.00 0.00 99 1018.1
20260905070954 69 69 0.0 0.0 0.00 0.00 0.00 99 1018.0
20260905070450 69 69 0.0 0.0 0.00 0.00 0.00 99 1018.1
20260905065950 69 69 0.0 0.0 0.00 0.00 0.00 99 1018.2
20260905065448 69 69 0.0 0.0 0.00 0.00 0.00 99 1018.0
20260905064944 69 69 0.9 0.9 0.00 0.00 0.00 99 1018.2
20260905064444 69 69 0.0 0.0 0.00 0.00 0.00 99 1018.3
20260905063938 69 69 0.0 0.0 0.00 0.00 0.00 98 1018.3
20260905063433 69 68 0.0 0.0 0.00 0.00 0.00 98 1018.2
20260905062930 69 68 0.0 0.0 0.00 0.00 0.00 98 1018.3
20260905062429 69 68 0.0 0.0 0.00 0.00 0.00 98 1018.4
20260905061925 69 68 0.9 0.9 0.00 0.00 0.00 98 1018.4
20260905061425 69 68 0.0 0.0 0.00 0.00 0.00 98 1018.3
20260905060924 69 68 0.0 0.0 0.00 0.00 0.00 98 1018.3
20260905060421 70 68 0.9 0.9 0.00 0.00 0.00 98 1018.5
20260905055919 70 68 0.0 0.0 0.00 0.00 0.00 98 1018.6
20260905055415 70 68 0.0 0.0 0.00 0.00 0.00 98 1018.7
20260905054914 70 68 0.0 0.0 0.00 0.00 0.00 98 1018.8
20260905054410 70 68 0.0 0.0 0.00 0.00 0.00 98 1018.5
20260905053910 70 68 0.0 0.0 0.00 0.00 0.00 98 1018.8
20260905053405 70 68 0.0 0.0 0.00 0.00 0.00 98 1018.7
20260905052901 70 68 0.0 0.0 0.00 0.00 0.00 98 1018.7
20260905052400 70 68 0.0 0.0 0.00 0.00 0.00 98 1018.7
20260905051859 70 68 0.0 0.0 0.00 0.00 0.00 98 1018.8
20260905051356 70 68 0.0 0.0 0.00 0.00 0.00 98 1018.6
20260905050853 70 68 0.0 0.0 0.00 0.00 0.00 98 1018.5
20260905050348 70 68 0.0 0.0 0.00 0.00 0.00 98 1018.7
20260905045848 70 68 0.9 0.9 0.00 0.00 0.00 98 1018.7
20260905045344 70 68 0.0 0.0 0.00 0.00 0.00 98 1018.6